Time;durP1;ratioP1;P1;durP2;ratioP2;P2;SDS_P1;SDS_P2;PMS_P1;PMS_P2;Temp;Humidity;BMP_temperature;BMP_pressure;BME280_temperature;BME280_humidity;BME280_pressure;Samples;Min_cycle;Max_cycle;Signal;HPM_P1;HPM_P2
2023/01/06 00:01:12;;;;;;;20.63;4.43;;;;;;;12.61;81.26;101310.88;5072507;28;20032;-57
2023/01/06 00:03:38;;;;;;;25.40;4.75;;;;;;;12.65;80.23;101317.47;5040768;28;20053;-57
2023/01/06 00:06:06;;;;;;;19.50;4.57;;;;;;;12.68;80.35;101327.81;5031267;28;20111;-56
2023/01/06 00:08:36;;;;;;;19.52;4.90;;;;;;;12.66;80.86;101340.63;5030514;28;20489;-56
2023/01/06 00:11:11;;;;;;;18.98;5.18;;;;;;;12.58;80.62;101338.13;5040524;28;20112;-56
2023/01/06 00:13:39;;;;;;;23.10;5.03;;;;;;;12.56;81.67;101342.91;5055893;28;20102;-56
2023/01/06 00:16:07;;;;;;;21.35;5.43;;;;;;;12.50;81.53;101357.97;5052176;28;20037;-57
2023/01/06 00:18:34;;;;;;;18.33;4.80;;;;;;;12.55;81.89;101363.56;5052294;28;20522;-57
2023/01/06 00:21:01;;;;;;;21.02;5.10;;;;;;;12.59;81.89;101359.41;5052415;28;20031;-57
2023/01/06 00:23:28;;;;;;;23.38;4.97;;;;;;;12.50;81.87;101367.88;5052579;28;20032;-57
2023/01/06 00:25:54;;;;;;;23.33;5.32;;;;;;;12.56;82.21;101370.56;5051994;28;20021;-57
2023/01/06 00:28:20;;;;;;;20.75;4.50;;;;;;;12.47;82.02;101385.22;5052545;28;20043;-57
2023/01/06 00:30:46;;;;;;;22.27;4.65;;;;;;;12.50;81.46;101389.38;5052352;28;20126;-57
2023/01/06 00:33:13;;;;;;;21.30;5.63;;;;;;;12.39;82.05;101415.78;5052135;28;20403;-57
2023/01/06 00:35:39;;;;;;;15.25;4.00;;;;;;;12.12;80.36;101432.84;5052010;28;20037;-57
2023/01/06 00:38:05;;;;;;;11.57;2.95;;;;;;;11.79;77.75;101443.41;5052219;28;20481;-57
2023/01/06 00:40:31;;;;;;;9.35;2.30;;;;;;;11.56;77.11;101441.84;5052205;28;20037;-57
2023/01/06 00:42:58;;;;;;;9.13;2.20;;;;;;;11.37;78.56;101448.75;5051763;28;20025;-56
2023/01/06 00:45:24;;;;;;;7.63;2.00;;;;;;;11.15;77.52;101449.81;5052385;28;20515;-56
2023/01/06 00:47:50;;;;;;;7.03;2.38;;;;;;;10.82;79.09;101476.31;5072214;28;20024;-57
2023/01/06 00:50:17;;;;;;;10.75;2.88;;;;;;;10.65;81.04;101464.22;5059588;28;20096;-57
2023/01/06 00:52:43;;;;;;;13.38;2.50;;;;;;;10.62;82.19;101468.13;5051952;28;20036;-57
2023/01/06 00:55:09;;;;;;;11.52;2.65;;;;;;;10.66;83.24;101473.91;5051060;28;20044;-57
2023/01/06 00:57:37;;;;;;;10.48;2.58;;;;;;;10.81;82.33;101466.63;5055122;28;20037;-57
2023/01/06 01:00:05;;;;;;;12.30;2.60;;;;;;;10.87;82.22;101465.03;5046760;28;20057;-57
2023/01/06 01:02:31;;;;;;;11.20;2.67;;;;;;;10.88;82.23;101477.41;5054882;28;20033;-57
2023/01/06 01:04:57;;;;;;;8.57;2.58;;;;;;;10.94;82.68;101485.53;5053697;28;20037;-56
2023/01/06 01:07:24;;;;;;;10.65;3.80;;;;;;;10.96;82.86;101501.41;5053044;28;20021;-56
2023/01/06 01:09:50;;;;;;;10.88;3.70;;;;;;;10.84;83.68;101501.91;5054451;28;20033;-56
2023/01/06 01:12:17;;;;;;;8.50;3.33;;;;;;;10.91;83.68;101506.50;5044081;28;20025;-57
2023/01/06 01:14:48;;;;;;;14.43;4.80;;;;;;;11.02;83.35;101516.69;5044192;28;20045;-56
2023/01/06 01:17:19;;;;;;;14.73;5.43;;;;;;;11.01;83.13;101507.00;5055701;28;20036;-57
2023/01/06 01:19:46;;;;;;;15.48;4.80;;;;;;;11.09;83.51;101517.56;5059076;28;20036;-58
2023/01/06 01:22:13;;;;;;;12.88;3.88;;;;;;;10.99;82.94;101504.53;5042705;28;20155;-57
2023/01/06 01:24:39;;;;;;;9.75;2.42;;;;;;;11.17;82.12;101505.91;5031618;28;20029;-57
2023/01/06 01:27:06;;;;;;;8.35;2.47;;;;;;;11.22;81.52;101508.84;5045918;28;20492;-57
2023/01/06 01:29:33;;;;;;;12.18;2.60;;;;;;;11.29;81.04;101515.91;5052689;28;20033;-57
2023/01/06 01:31:59;;;;;;;7.07;2.60;;;;;;;11.04;81.32;101512.78;5055708;28;20033;-56
2023/01/06 01:34:26;;;;;;;9.88;2.60;;;;;;;11.09;81.25;101515.72;5055323;28;20047;-57
2023/01/06 01:36:53;;;;;;;12.48;3.15;;;;;;;11.12;80.81;101524.41;5057087;28;20032;-56
2023/01/06 01:39:23;;;;;;;6.40;2.53;;;;;;;11.12;80.50;101530.59;5075350;28;20032;-56
2023/01/06 01:41:50;;;;;;;14.02;2.90;;;;;;;10.88;81.40;101539.84;5074492;28;20028;-57
2023/01/06 01:44:53;;;;;;;11.00;3.28;;;;;;;11.01;80.54;101549.88;5062785;28;20029;-57
2023/01/06 01:47:49;;;;;;;19.35;4.22;;;;;;;10.78;80.98;101560.75;5035038;28;20029;-57
2023/01/06 01:50:27;;;;;;;13.60;4.25;;;;;;;10.99;78.38;101565.28;5011884;28;20041;-56
2023/01/06 01:53:01;;;;;;;13.32;4.60;;;;;;;10.73;79.45;101574.72;5035275;28;20026;-56
2023/01/06 01:55:28;;;;;;;9.63;3.75;;;;;;;10.72;79.74;101582.94;5040311;28;20039;-56
2023/01/06 01:58:30;;;;;;;12.85;4.82;;;;;;;10.83;79.54;101585.97;5074780;28;20046;-57
2023/01/06 02:00:57;;;;;;;13.40;4.35;;;;;;;10.79;79.25;101583.84;5061826;28;20032;-56
2023/01/06 02:03:24;;;;;;;7.72;3.38;;;;;;;10.81;79.35;101592.50;5071396;28;20021;-56
2023/01/06 02:05:58;;;;;;;14.35;3.80;;;;;;;10.73;79.98;101590.78;5054355;28;20091;-56
2023/01/06 02:08:36;;;;;;;11.30;3.97;;;;;;;10.82;79.93;101604.88;5054631;28;20512;-56
2023/01/06 02:11:03;;;;;;;17.23;4.30;;;;;;;10.80;80.23;101612.28;5046894;28;20386;-56
2023/01/06 02:13:34;;;;;;;17.20;4.70;;;;;;;10.48;81.21;101610.84;5034566;28;20474;-56
2023/01/06 02:16:14;;;;;;;11.50;3.78;;;;;;;10.49;81.83;101612.50;5044965;28;20113;-56
2023/01/06 02:19:17;;;;;;;15.05;4.28;;;;;;;10.38;82.01;101616.47;5054791;28;20405;-56
2023/01/06 02:22:01;;;;;;;15.40;4.72;;;;;;;10.49;81.52;101628.56;5045770;28;20091;-56
2023/01/06 02:24:49;;;;;;;17.80;4.70;;;;;;;10.36;82.52;101631.06;5072705;28;20033;-55
2023/01/06 02:27:27;;;;;;;18.40;4.63;;;;;;;10.16;83.15;101642.31;5072484;28;20036;-56
2023/01/06 02:30:36;;;;;;;19.48;4.38;;;;;;;10.27;82.67;101649.91;5074270;28;20025;-56
2023/01/06 02:33:21;;;;;;;20.58;5.53;;;;;;;10.27;82.20;101655.25;5054924;28;20039;-56
2023/01/06 02:35:50;;;;;;;27.95;5.63;;;;;;;10.23;82.37;101659.31;5054128;28;20037;-56
2023/01/06 02:38:19;;;;;;;17.63;5.75;;;;;;;10.19;82.05;101660.66;5052972;28;20041;-56
2023/01/06 02:41:03;;;;;;;17.52;5.13;;;;;;;10.13;82.19;101666.75;5053685;28;20044;-56
2023/01/06 02:44:10;;;;;;;21.63;6.05;;;;;;;9.99;82.77;101679.09;5046259;28;20032;-56
2023/01/06 02:46:46;;;;;;;19.35;4.95;;;;;;;9.97;82.79;101685.63;5044662;28;20037;-56
2023/01/06 02:49:31;;;;;;;27.73;6.05;;;;;;;9.99;82.74;101696.94;5054039;28;20090;-54
2023/01/06 02:52:00;;;;;;;;;;;;;;;10.11;82.06;101708.91;5034591;28;20022;-54
2023/01/06 02:54:39;;;;;;;19.13;6.47;;;;;;;9.87;83.80;101712.59;5034076;28;20023;-53
2023/01/06 02:57:19;;;;;;;17.35;5.13;;;;;;;9.93;83.96;101724.44;5049786;28;20028;-55
2023/01/06 03:00:34;;;;;;;21.77;5.65;;;;;;;9.87;84.11;101722.47;5034292;28;20547;-54
2023/01/06 03:03:12;;;;;;;15.30;5.18;;;;;;;9.90;84.30;101728.31;5044301;28;20584;-53
2023/01/06 03:05:41;;;;;;;23.40;6.13;;;;;;;9.77;85.61;101731.59;5053623;28;20025;-55
2023/01/06 03:08:14;;;;;;;22.80;6.30;;;;;;;9.92;84.99;101728.13;5053408;28;20025;-54
2023/01/06 03:10:45;;;;;;;23.60;6.20;;;;;;;9.65;86.55;101738.34;5052217;28;20029;-54
2023/01/06 03:13:27;;;;;;;18.65;6.72;;;;;;;9.66;86.40;101740.03;5053408;28;20086;-55
2023/01/06 03:15:54;;;;;;;25.98;6.93;;;;;;;9.59;86.60;101744.41;5053233;28;20040;-54
2023/01/06 03:18:20;;;;;;;22.05;7.05;;;;;;;9.62;86.52;101753.91;5053097;28;20033;-54
2023/01/06 03:20:50;;;;;;;21.63;6.78;;;;;;;9.65;86.28;101745.53;5053487;28;20035;-54
2023/01/06 03:23:16;;;;;;;29.45;7.35;;;;;;;9.66;85.98;101758.75;5053014;28;20477;-55
2023/01/06 03:25:43;;;;;;;20.88;6.10;;;;;;;9.70;85.98;101770.72;5053303;28;20120;-55
2023/01/06 03:28:10;;;;;;;37.10;7.95;;;;;;;9.70;85.66;101769.88;5052694;28;20025;-54
2023/01/06 03:30:47;;;;;;;28.00;7.07;;;;;;;9.78;85.76;101773.34;5054317;28;20120;-54
2023/01/06 03:33:26;;;;;;;28.40;6.47;;;;;;;9.78;85.39;101773.34;5053044;28;20033;-56
2023/01/06 03:36:06;;;;;;;20.20;6.50;;;;;;;9.70;85.90;101781.41;5053315;28;20029;-57
2023/01/06 03:38:39;;;;;;;24.83;7.03;;;;;;;9.84;85.35;101785.19;5052899;28;20489;-54
2023/01/06 03:41:10;;;;;;;27.40;8.48;;;;;;;9.63;86.26;101784.97;5054188;28;20125;-53
2023/01/06 03:44:04;;;;;;;24.60;7.32;;;;;;;9.68;86.09;101788.78;5053634;28;20566;-54
2023/01/06 03:46:46;;;;;;;22.95;6.55;;;;;;;9.69;86.03;101795.78;5053534;28;20166;-55
2023/01/06 03:49:27;;;;;;;29.02;7.25;;;;;;;9.66;86.32;101796.16;5052581;28;20098;-54
2023/01/06 03:52:03;;;;;;;19.08;6.65;;;;;;;9.90;86.03;101797.84;5052455;28;20086;-54
2023/01/06 03:54:43;;;;;;;17.67;6.35;;;;;;;9.84;86.15;101806.56;5052469;28;20025;-54
2023/01/06 03:57:09;;;;;;;27.15;6.10;;;;;;;9.95;85.97;101806.16;5052535;28;20082;-55
2023/01/06 03:59:41;;;;;;;21.13;7.35;;;;;;;9.93;86.14;101807.31;5053253;28;20028;-55
2023/01/06 04:02:09;;;;;;;25.40;5.75;;;;;;;9.82;86.85;101810.41;5052316;28;20793;-54
2023/01/06 04:04:36;;;;;;;26.42;7.38;;;;;;;9.95;86.60;101819.53;5052707;28;20503;-54
2023/01/06 04:07:03;;;;;;;23.95;6.20;;;;;;;9.95;86.53;101827.56;5051756;28;20029;-54
2023/01/06 04:09:29;;;;;;;27.90;7.55;;;;;;;10.03;86.46;101832.84;5052712;28;20036;-54
2023/01/06 04:14:40;;;;;;;33.38;7.05;;;;;;;10.01;86.64;101836.72;5052345;28;20044;-53
2023/01/06 04:17:06;;;;;;;25.67;6.80;;;;;;;9.99;86.87;101839.56;5051864;28;20052;-55
2023/01/06 04:19:32;;;;;;;26.45;6.65;;;;;;;10.22;86.23;101844.91;5052325;28;20067;-55
2023/01/06 04:21:58;;;;;;;39.85;8.38;;;;;;;9.99;87.52;101852.09;5051821;28;20362;-55
2023/01/06 04:24:27;;;;;;;34.38;8.40;;;;;;;10.01;87.62;101836.72;5052260;28;20497;-57
2023/01/06 04:26:53;;;;;;;33.03;8.18;;;;;;;10.08;87.31;101847.53;5051536;28;20528;-55
2023/01/06 04:29:19;;;;;;;43.10;9.02;;;;;;;9.91;88.76;101847.63;5051989;28;20107;-55
2023/01/06 04:31:48;;;;;;;49.15;8.63;;;;;;;9.88;88.95;101853.31;5054289;28;20052;-55
2023/01/06 04:34:15;;;;;;;35.45;8.68;;;;;;;9.89;88.39;101857.69;5040808;28;20044;-55
2023/01/06 04:36:41;;;;;;;34.75;9.20;;;;;;;9.97;88.38;101864.81;5035050;28;20033;-55
2023/01/06 04:39:07;;;;;;;37.53;9.75;;;;;;;10.01;88.30;101866.13;5044014;28;20147;-55
2023/01/06 04:41:33;;;;;;;31.83;9.25;;;;;;;10.11;87.29;101869.41;5050486;28;20033;-55
2023/01/06 04:44:00;;;;;;;33.65;9.38;;;;;;;9.91;87.80;101870.88;5051702;28;20029;-55
2023/01/06 04:46:26;;;;;;;40.55;9.68;;;;;;;10.00;87.78;101873.31;5051027;28;20075;-55
2023/01/06 04:48:52;;;;;;;34.42;8.50;;;;;;;10.06;87.55;101877.13;5051230;28;20044;-55
2023/01/06 04:51:18;;;;;;;35.15;9.65;;;;;;;10.09;87.57;101876.75;5046571;28;20052;-55
2023/01/06 04:53:44;;;;;;;39.95;9.93;;;;;;;10.07;87.54;101889.50;5051785;28;20032;-55
2023/01/06 04:56:12;;;;;;;33.05;9.52;;;;;;;10.05;87.66;101896.88;5046985;28;20021;-55
2023/01/06 04:58:39;;;;;;;33.10;9.43;;;;;;;10.09;87.77;101900.84;5051290;28;20032;-55
2023/01/06 05:01:08;;;;;;;40.90;9.90;;;;;;;10.15;87.89;101893.94;5052444;28;20032;-55
2023/01/06 05:03:35;;;;;;;44.08;10.57;;;;;;;10.08;88.27;101899.19;5061403;28;20036;-55
2023/01/06 05:06:10;;;;;;;34.83;9.20;;;;;;;10.13;88.17;101904.00;5050919;28;20036;-54
2023/01/06 05:08:38;;;;;;;44.47;9.25;;;;;;;10.19;87.89;101903.28;5051359;28;20024;-55
2023/01/06 05:11:08;;;;;;;43.67;10.43;;;;;;;10.13;88.04;101912.84;5051009;28;20098;-55
2023/01/06 05:13:36;;;;;;;32.95;9.20;;;;;;;10.06;88.58;101917.25;5051092;28;20031;-55
2023/01/06 05:16:19;;;;;;;30.33;9.00;;;;;;;10.05;88.17;101919.09;5051292;28;20120;-55
2023/01/06 05:18:45;;;;;;;43.97;10.95;;;;;;;9.97;88.77;101934.34;5051449;28;20529;-55
2023/01/06 05:21:12;;;;;;;48.22;11.07;;;;;;;9.93;89.31;101927.69;5051031;28;20041;-55
2023/01/06 05:23:39;;;;;;;42.33;9.52;;;;;;;10.11;89.12;101938.13;5050987;28;20082;-55
2023/01/06 05:26:07;;;;;;;33.03;9.27;;;;;;;10.16;88.23;101931.25;5050459;28;20032;-55
2023/01/06 05:28:33;;;;;;;34.92;9.43;;;;;;;10.15;88.07;101945.59;5051283;28;20474;-57
2023/01/06 05:31:00;;;;;;;37.60;9.27;;;;;;;10.23;87.43;101939.41;5057740;28;20133;-55
2023/01/06 05:33:26;;;;;;;56.30;10.50;;;;;;;10.20;87.31;101940.56;5051087;28;20061;-55
2023/01/06 05:36:00;;;;;;;43.47;9.82;;;;;;;9.99;88.42;101953.72;5050830;28;20024;-55
2023/01/06 05:38:27;;;;;;;36.95;9.40;;;;;;;10.05;88.73;101950.38;5051070;28;20390;-55
2023/01/06 05:40:55;;;;;;;38.42;8.88;;;;;;;10.12;88.45;101954.00;5050718;28;20032;-55
2023/01/06 05:43:22;;;;;;;34.40;8.57;;;;;;;10.01;88.60;101951.72;5050963;28;20029;-55
2023/01/06 05:45:49;;;;;;;50.03;9.25;;;;;;;10.06;88.23;101952.03;5050385;28;20037;-55
2023/01/06 05:48:15;;;;;;;45.80;9.77;;;;;;;10.05;88.08;101956.56;5050858;28;20036;-55
2023/01/06 05:50:42;;;;;;;31.08;8.88;;;;;;;10.08;87.88;101962.53;5050520;28;20137;-55
2023/01/06 05:53:08;;;;;;;33.60;8.73;;;;;;;10.16;87.45;101966.03;5050935;28;20025;-55
2023/01/06 05:55:34;;;;;;;38.00;9.02;;;;;;;10.31;86.89;101966.94;5050152;28;20029;-55
2023/01/06 05:58:01;;;;;;;27.83;8.13;;;;;;;10.26;87.47;101965.81;5050805;28;20029;-55
2023/01/06 06:00:27;;;;;;;34.97;7.90;;;;;;;10.22;86.79;101968.00;5051413;28;20025;-55
2023/01/06 06:02:55;;;;;;;24.92;7.78;;;;;;;10.18;86.94;101972.03;5042826;28;20465;-55
2023/01/06 06:05:21;;;;;;;35.42;8.30;;;;;;;9.98;87.58;101978.81;5049668;28;20456;-54
2023/01/06 06:07:56;;;;;;;41.25;8.05;;;;;;;9.95;88.47;101976.50;5050437;28;20102;-55
2023/01/06 06:10:23;;;;;;;37.78;8.32;;;;;;;10.09;88.13;101983.75;5050547;28;20036;-55
2023/01/06 06:12:52;;;;;;;38.13;8.18;;;;;;;10.12;88.25;101983.44;5050190;28;20131;-55
2023/01/06 06:15:19;;;;;;;31.67;7.63;;;;;;;10.25;87.79;101988.25;5051229;28;20095;-55
2023/01/06 06:17:45;;;;;;;33.42;8.30;;;;;;;10.18;87.92;101981.91;5054044;28;20112;-55
2023/01/06 06:20:11;;;;;;;34.50;8.13;;;;;;;10.10;88.19;101980.06;5054020;28;20037;-55
2023/01/06 06:22:37;;;;;;;32.63;7.13;;;;;;;10.24;88.25;101982.06;5053880;28;20021;-55
2023/01/06 06:25:04;;;;;;;39.58;7.28;;;;;;;10.30;87.92;101980.50;5054206;28;20503;-55
2023/01/06 06:27:30;;;;;;;35.25;8.63;;;;;;;10.26;87.92;101993.41;5052665;28;20095;-55
2023/01/06 06:29:56;;;;;;;29.00;7.80;;;;;;;10.25;88.39;101983.72;5062023;28;20405;-55
2023/01/06 06:32:23;;;;;;;44.97;8.35;;;;;;;10.35;87.83;101993.38;5059006;28;20025;-55
2023/01/06 06:34:49;;;;;;;27.05;7.40;;;;;;;10.41;87.75;101995.34;5053601;28;20028;-56
2023/01/06 06:37:15;;;;;;;28.15;7.32;;;;;;;10.53;87.05;101996.59;5053668;28;20475;-56
2023/01/06 06:39:41;;;;;;;23.88;6.80;;;;;;;10.46;87.34;101990.28;5053744;28;20386;-55
2023/01/06 06:42:07;;;;;;;32.45;8.10;;;;;;;10.44;87.20;102001.19;5054134;28;20385;-55
2023/01/06 06:44:34;;;;;;;51.53;8.40;;;;;;;10.47;87.14;102002.66;5053981;28;20363;-55
2023/01/06 06:47:00;;;;;;;36.40;7.93;;;;;;;10.50;87.05;102007.69;5053070;28;20596;-56
2023/01/06 06:49:26;;;;;;;32.15;7.53;;;;;;;10.40;87.33;102010.56;5053084;28;20029;-55
2023/01/06 06:51:52;;;;;;;31.65;7.95;;;;;;;10.37;87.35;102020.78;5053119;28;20489;-55
2023/01/06 06:54:19;;;;;;;35.40;7.47;;;;;;;10.48;87.12;102015.84;5053558;28;20107;-55
2023/01/06 06:56:45;;;;;;;26.50;6.80;;;;;;;10.55;86.41;102013.34;5052722;28;20116;-55
2023/01/06 06:59:11;;;;;;;26.70;7.05;;;;;;;10.45;86.81;102026.09;5053800;28;20033;-55
2023/01/06 07:01:37;;;;;;;35.13;7.68;;;;;;;10.31;87.08;102027.66;5056712;28;20025;-55
2023/01/06 07:04:04;;;;;;;32.03;6.55;;;;;;;10.52;86.80;102033.25;5053441;28;20025;-55
2023/01/06 07:06:30;;;;;;;31.33;7.53;;;;;;;10.64;85.84;102025.63;5052877;28;20380;-55
2023/01/06 07:08:57;;;;;;;34.03;6.18;;;;;;;10.57;85.98;102030.03;5053244;28;20075;-53
2023/01/06 07:11:23;;;;;;;35.17;7.80;;;;;;;10.43;86.15;102028.09;5052857;28;20040;-53
2023/01/06 07:13:49;;;;;;;21.55;6.07;;;;;;;10.48;86.26;102025.75;5052865;28;20053;-53
2023/01/06 07:16:16;;;;;;;30.35;7.03;;;;;;;10.52;85.93;102032.41;5051744;28;20489;-53
2023/01/06 07:18:42;;;;;;;28.45;6.32;;;;;;;10.47;85.87;102029.44;5053232;28;20036;-53
2023/01/06 07:21:08;;;;;;;29.45;7.07;;;;;;;10.39;85.49;102035.69;5052908;28;20021;-52
2023/01/06 07:23:35;;;;;;;25.02;5.75;;;;;;;10.50;85.34;102039.81;5052508;28;20099;-53
2023/01/06 07:26:02;;;;;;;27.88;6.05;;;;;;;10.49;85.28;102036.28;5051986;28;20051;-54
2023/01/06 07:28:30;;;;;;;33.38;6.25;;;;;;;10.47;84.80;102040.97;5052069;28;20087;-52
2023/01/06 07:30:56;;;;;;;26.33;6.95;;;;;;;10.45;84.78;102052.88;5053645;28;20393;-53
2023/01/06 07:33:23;;;;;;;29.63;6.57;;;;;;;10.42;85.33;102054.03;5053042;28;20438;-52
2023/01/06 07:35:54;;;;;;;34.58;7.03;;;;;;;10.66;84.35;102050.41;5051901;28;20025;-53
2023/01/06 07:38:20;;;;;;;36.60;6.90;;;;;;;10.70;83.94;102067.78;5052098;28;20474;-53
2023/01/06 07:40:47;;;;;;;24.65;4.97;;;;;;;10.66;84.10;102066.47;5052332;28;20025;-52
2023/01/06 07:43:13;;;;;;;24.15;5.28;;;;;;;10.79;83.18;102064.03;5052939;28;20033;-53
2023/01/06 07:45:39;;;;;;;21.63;5.70;;;;;;;10.79;83.19;102066.72;5052060;28;20473;-52
2023/01/06 07:48:06;;;;;;;23.80;5.80;;;;;;;10.65;83.61;102062.09;5052448;28;20040;-54
2023/01/06 07:50:32;;;;;;;25.02;5.05;;;;;;;10.84;82.89;102071.56;5052101;28;20121;-52
2023/01/06 07:53:01;;;;;;;31.73;5.85;;;;;;;10.90;82.73;102073.50;5051899;28;20036;-53
2023/01/06 07:55:28;;;;;;;22.27;5.47;;;;;;;10.85;82.92;102070.53;5052481;28;20033;-54
2023/01/06 07:57:55;;;;;;;28.27;5.82;;;;;;;10.93;82.58;102066.94;5051427;28;20103;-53
2023/01/06 08:00:21;;;;;;;19.33;5.22;;;;;;;10.91;81.95;102066.31;5052618;28;20028;-53
2023/01/06 08:02:48;;;;;;;22.40;4.70;;;;;;;10.91;81.50;102064.47;5052745;28;20037;-52
2023/01/06 08:05:14;;;;;;;19.17;4.30;;;;;;;10.72;82.19;102070.28;5051850;28;20473;-53
2023/01/06 08:07:40;;;;;;;21.08;4.75;;;;;;;10.82;81.33;102065.50;5052050;28;20501;-53
2023/01/06 08:10:07;;;;;;;22.45;6.15;;;;;;;10.83;81.41;102072.56;5051731;28;20040;-52
2023/01/06 08:12:34;;;;;;;13.95;4.25;;;;;;;10.81;81.55;102074.56;5051750;28;20067;-53
2023/01/06 08:15:01;;;;;;;18.95;5.05;;;;;;;10.84;81.43;102069.69;5051366;28;20076;-53
2023/01/06 08:17:27;;;;;;;24.80;5.43;;;;;;;10.74;81.35;102079.81;5052247;28;20555;-51
2023/01/06 08:19:53;;;;;;;20.05;5.20;;;;;;;10.61;82.22;102074.19;5051768;28;20028;-53
2023/01/06 08:22:19;;;;;;;19.83;4.70;;;;;;;10.76;81.46;102080.44;5051715;28;20052;-53
2023/01/06 08:24:45;;;;;;;19.30;5.25;;;;;;;10.80;81.33;102086.31;5051206;28;20029;-53
2023/01/06 08:27:12;;;;;;;24.23;5.05;;;;;;;10.82;81.20;102081.59;5051525;28;20020;-53
2023/01/06 08:29:38;;;;;;;17.15;4.63;;;;;;;10.82;80.51;102077.06;5051644;28;20624;-53
2023/01/06 08:32:04;;;;;;;26.35;5.45;;;;;;;10.74;80.68;102078.97;5052989;28;20094;-53
2023/01/06 08:34:30;;;;;;;21.33;5.00;;;;;;;10.77;80.74;102079.47;5051303;28;20075;-54
2023/01/06 08:36:57;;;;;;;26.88;5.60;;;;;;;10.72;80.77;102087.19;5051329;28;20109;-54
2023/01/06 08:39:23;;;;;;;18.85;5.40;;;;;;;10.61;80.42;102079.56;5051499;28;20052;-54
2023/01/06 08:41:50;;;;;;;20.13;5.40;;;;;;;10.76;80.31;102088.47;5051401;28;20029;-52
2023/01/06 08:44:17;;;;;;;18.10;4.80;;;;;;;10.82;80.62;102082.41;5050869;28;20037;-53
2023/01/06 08:46:44;;;;;;;22.98;5.57;;;;;;;10.94;80.22;102084.69;5051307;28;20098;-53
2023/01/06 08:49:10;;;;;;;22.38;4.70;;;;;;;10.84;80.06;102083.09;5051259;28;20020;-54
2023/01/06 08:51:36;;;;;;;24.45;5.50;;;;;;;10.87;79.61;102078.38;5051508;28;20029;-53
2023/01/06 08:54:03;;;;;;;20.40;5.60;;;;;;;10.88;79.64;102080.03;5051348;28;20115;-53
2023/01/06 08:56:31;;;;;;;20.30;4.97;;;;;;;10.74;79.36;102070.94;5050810;28;20032;-51
2023/01/06 08:59:03;;;;;;;28.15;5.15;;;;;;;10.87;79.35;102081.88;5051288;28;20029;-53
2023/01/06 09:01:32;;;;;;;21.48;5.38;;;;;;;10.83;79.60;102078.75;5051461;28;20094;-53
2023/01/06 09:04:00;;;;;;;25.20;5.70;;;;;;;10.79;79.83;102085.47;5051547;28;20029;-52
2023/01/06 09:06:27;;;;;;;25.05;5.30;;;;;;;10.79;79.51;102085.47;5050080;28;20029;-52
2023/01/06 09:08:54;;;;;;;16.67;4.90;;;;;;;10.72;79.83;102092.53;5051325;28;20033;-53
2023/01/06 09:11:21;;;;;;;21.90;4.50;;;;;;;10.77;79.73;102092.84;5050867;28;20094;-53
2023/01/06 09:13:49;;;;;;;18.08;5.30;;;;;;;10.65;80.00;102096.91;5050961;28;20041;-52
2023/01/06 09:16:16;;;;;;;18.70;4.93;;;;;;;10.64;80.08;102094.44;5050693;28;20068;-53
2023/01/06 09:18:52;;;;;;;20.00;5.95;;;;;;;10.63;80.20;102090.09;5051143;28;20029;-53
2023/01/06 09:21:21;;;;;;;21.70;5.57;;;;;;;10.72;80.06;102094.41;5051024;28;20043;-53
2023/01/06 09:23:47;;;;;;;24.85;5.72;;;;;;;10.74;79.62;102100.41;5050415;28;20027;-53
2023/01/06 09:26:16;;;;;;;21.35;5.43;;;;;;;10.66;80.01;102093.25;5047193;28;20496;-53
2023/01/06 09:28:42;;;;;;;21.10;4.78;;;;;;;10.62;80.23;102102.63;5051216;28;20037;-53
2023/01/06 09:31:09;;;;;;;18.80;4.85;;;;;;;10.74;80.59;102097.72;5054393;28;20024;-53
2023/01/06 09:33:35;;;;;;;27.58;6.25;;;;;;;10.61;80.44;102095.63;5060390;28;20033;-53
2023/01/06 09:36:02;;;;;;;24.85;5.68;;;;;;;10.63;80.26;102093.59;5050459;28;20017;-53
2023/01/06 09:38:28;;;;;;;28.25;5.22;;;;;;;10.51;80.92;102103.03;5051023;28;20108;-53
2023/01/06 09:41:22;;;;;;;20.52;5.38;;;;;;;10.70;80.51;102115.97;5051025;28;20037;-54
2023/01/06 09:43:57;;;;;;;23.95;4.57;;;;;;;10.69;80.75;102117.00;5051292;28;20033;-53
2023/01/06 09:46:29;;;;;;;16.67;5.22;;;;;;;10.71;80.80;102120.31;5050490;28;20052;-52
2023/01/06 09:49:08;;;;;;;20.27;5.57;;;;;;;10.75;79.73;102129.66;5035200;28;20107;-53
2023/01/06 09:51:35;;;;;;;20.00;4.68;;;;;;;10.84;79.55;102133.97;5054173;28;20484;-51
2023/01/06 09:54:24;;;;;;;16.58;4.97;;;;;;;10.73;79.61;102129.03;5054518;28;20033;-53
2023/01/06 09:57:05;;;;;;;24.70;4.93;;;;;;;10.80;78.80;102123.78;5053764;28;20032;-54
2023/01/06 10:00:01;;;;;;;20.83;4.55;;;;;;;10.86;79.08;102131.13;5054447;28;20024;-53
2023/01/06 10:02:40;;;;;;;22.20;5.63;;;;;;;10.81;79.15;102133.50;5023554;28;20049;-53
2023/01/06 10:05:20;;;;;;;29.38;5.43;;;;;;;10.75;79.36;102132.34;5041402;28;20397;-52
2023/01/06 10:07:56;;;;;;;21.50;5.35;;;;;;;10.86;79.06;102132.97;5054566;28;20037;-53
2023/01/06 10:11:04;;;;;;;25.58;5.78;;;;;;;10.90;78.88;102132.44;5054299;28;20116;-54
2023/01/06 10:13:46;;;;;;;21.73;5.43;;;;;;;10.88;79.27;102134.44;4958825;28;20038;-53
2023/01/06 10:16:25;;;;;;;21.67;5.68;;;;;;;10.88;79.36;102121.06;4972567;28;20467;-52
2023/01/06 10:19:01;;;;;;;23.73;5.50;;;;;;;10.86;80.27;102128.44;5013618;28;20112;-53
2023/01/06 10:21:44;;;;;;;22.20;5.80;;;;;;;10.86;80.25;102119.56;5028010;28;20060;-53
2023/01/06 10:24:24;;;;;;;23.42;5.20;;;;;;;11.00;79.65;102110.78;5033386;28;20033;-53
2023/01/06 10:26:57;;;;;;;23.05;6.05;;;;;;;11.08;79.15;102102.69;5018031;28;20067;-53
2023/01/06 10:29:31;;;;;;;17.67;5.55;;;;;;;11.03;78.93;102100.53;5033929;28;20034;-52
2023/01/06 10:32:00;;;;;;;15.25;4.82;;;;;;;11.01;79.07;102101.75;5034356;28;20037;-53
2023/01/06 10:34:27;;;;;;;25.55;5.88;;;;;;;11.01;79.17;102107.09;5033270;28;20033;-50
2023/01/06 10:37:13;;;;;;;18.17;5.00;;;;;;;11.24;78.57;102115.13;5033841;28;20056;-53
2023/01/06 10:39:43;;;;;;;25.42;5.82;;;;;;;11.13;78.83;102110.19;5033379;28;20033;-53
2023/01/06 10:45:12;;;;;;;25.95;5.50;;;;;;;11.12;79.51;102112.03;5028245;28;20029;-53
2023/01/06 10:47:41;;;;;;;24.23;5.35;;;;;;;11.09;79.56;102120.44;5033897;28;20381;-53
2023/01/06 10:50:15;;;;;;;25.92;5.57;;;;;;;11.10;79.42;102120.28;5033631;28;20034;-52
2023/01/06 10:52:43;;;;;;;22.08;5.20;;;;;;;11.18;79.44;102123.91;5035139;28;20029;-53
2023/01/06 10:55:19;;;;;;;23.83;5.30;;;;;;;11.27;79.21;102129.03;5032537;28;20111;-53
2023/01/06 10:57:48;;;;;;;30.70;5.75;;;;;;;11.19;79.02;102120.19;5033805;28;20275;-55
2023/01/06 11:00:23;;;;;;;28.20;6.00;;;;;;;11.18;78.38;102127.41;5033000;28;20041;-53
2023/01/06 11:02:54;;;;;;;22.40;5.60;;;;;;;11.15;78.90;102129.59;5032575;28;20064;-53
2023/01/06 11:05:26;;;;;;;27.25;6.40;;;;;;;11.21;78.38;102128.88;5032779;28;20038;-54
2023/01/06 11:08:02;;;;;;;24.70;6.03;;;;;;;11.17;78.43;102128.44;5033871;28;20021;-52
2023/01/06 11:10:30;;;;;;;22.90;5.32;;;;;;;11.10;78.69;102131.00;5032877;28;20116;-53
2023/01/06 11:12:59;;;;;;;23.73;5.53;;;;;;;11.06;78.78;102143.06;5033572;28;20037;-53
2023/01/06 11:15:35;;;;;;;24.17;5.65;;;;;;;10.99;79.46;102141.25;5050014;28;20433;-53
2023/01/06 11:18:04;;;;;;;26.65;5.53;;;;;;;11.09;79.96;102140.00;5053476;28;20124;-56
2023/01/06 11:20:33;;;;;;;28.20;5.40;;;;;;;11.06;80.83;102137.69;5058045;28;20036;-56
2023/01/06 11:23:21;;;;;;;18.13;5.78;;;;;;;10.98;81.68;102144.94;5053029;28;20413;-56
2023/01/06 11:26:22;;;;;;;27.33;5.80;;;;;;;10.95;82.09;102142.63;5045976;28;20028;-56
2023/01/06 11:28:53;;;;;;;23.58;5.25;;;;;;;10.95;82.52;102134.59;5009664;28;20088;-55
2023/01/06 11:31:24;;;;;;;22.55;5.78;;;;;;;10.93;82.67;102131.25;5052317;28;20540;-55
2023/01/06 11:33:55;;;;;;;33.97;7.28;;;;;;;10.92;82.91;102118.88;5052510;28;20029;-55
2023/01/06 11:36:24;;;;;;;30.10;5.47;;;;;;;10.82;83.41;102111.03;5052798;28;20477;-55
2023/01/06 11:39:16;;;;;;;22.88;6.10;;;;;;;10.98;83.02;102102.91;5052460;28;20366;-55
2023/01/06 11:41:49;;;;;;;23.45;5.68;;;;;;;10.81;83.46;102099.50;5053349;28;20089;-55